Terminal Aerodrome Forecast
Issued by NWS Pocatello, ID

Home | Current Version | Previous Version | Text Only | Print | Product List | Glossary On
Versions: 1 2 3 4 5 6 7 8 9 10 11 12 13 14
595
FTUS45 KPIH 242327
TAFBYI
TAF
KBYI 242327Z 2500/2524 20012G22KT P6SM BKN070 OVC120
     FM250400 25009KT P6SM -SHRA BKN020 OVC040
     FM251000 27008KT P6SM VCSH SCT020 OVC035
     FM251400 26011G20KT P6SM SCT020 BKN150=

USA.gov is the U.S. government's official web portal to all federal, state and local government web resources and services.